createdAt,value
2023-05-06T00:00:39.503Z,13.43
2023-05-06T00:01:41.705Z,13.53
2023-05-06T00:02:43.993Z,13.54
2023-05-06T00:03:46.443Z,13.44
2023-05-06T00:04:49.358Z,13.55
2023-05-06T00:05:51.891Z,13.54
2023-05-06T00:06:54.301Z,13.65
2023-05-06T00:07:56.621Z,13.65
2023-05-06T00:08:59.209Z,13.58
2023-05-06T00:10:01.550Z,13.53
2023-05-06T00:11:03.922Z,13.51
2023-05-06T00:12:06.102Z,13.50
2023-05-06T00:13:08.350Z,13.46
2023-05-06T00:14:10.656Z,13.50
2023-05-06T00:15:12.915Z,13.59
2023-05-06T00:16:15.247Z,13.70
2023-05-06T00:17:17.780Z,13.76
2023-05-06T00:18:22.292Z,13.77
2023-05-06T00:19:24.524Z,13.75
2023-05-06T00:20:27.431Z,13.70
2023-05-06T00:21:29.820Z,13.68
2023-05-06T00:22:32.013Z,13.79
2023-05-06T00:23:34.213Z,13.82
2023-05-06T00:24:36.379Z,13.79
2023-05-06T00:25:38.686Z,13.75
2023-05-06T00:26:40.879Z,13.66
2023-05-06T00:27:43.006Z,13.67
2023-05-06T00:28:47.953Z,13.61
2023-05-06T00:29:50.482Z,13.62
2023-05-06T00:30:52.744Z,13.64
2023-05-06T00:31:55.022Z,13.55
2023-05-06T00:32:57.286Z,13.60
2023-05-06T00:33:59.502Z,13.63
2023-05-06T00:35:01.696Z,13.54
2023-05-06T00:36:04.053Z,13.69
2023-05-06T00:37:06.282Z,13.59
2023-05-06T00:38:11.352Z,13.57
2023-05-06T00:39:13.526Z,13.63
2023-05-06T00:40:15.858Z,13.60
2023-05-06T00:41:18.095Z,13.61
2023-05-06T00:42:23.155Z,13.62
2023-05-06T00:43:25.353Z,13.65
2023-05-06T00:44:28.383Z,13.73
2023-05-06T00:45:30.822Z,13.73
2023-05-06T00:46:33.465Z,13.66
2023-05-06T00:47:35.760Z,13.78
2023-05-06T00:48:38.810Z,13.81
2023-05-06T00:49:42.080Z,13.78
2023-05-06T00:50:45.770Z,13.73
2023-05-06T00:51:48.531Z,13.71
2023-05-06T00:52:51.300Z,13.85
2023-05-06T00:53:53.476Z,13.90
2023-05-06T00:54:56.315Z,13.84
2023-05-06T00:55:58.479Z,13.75
2023-05-06T00:57:01.272Z,13.78
2023-05-06T00:58:03.586Z,13.75
2023-05-06T00:59:06.076Z,13.79
2023-05-06T01:00:08.679Z,13.81
2023-05-06T01:01:11.265Z,13.80
2023-05-06T01:02:13.635Z,13.79
2023-05-06T01:03:15.899Z,13.77
2023-05-06T01:04:18.617Z,13.87
2023-05-06T01:05:22.797Z,13.91
2023-05-06T01:07:02.902Z,13.95
2023-05-06T01:08:15.535Z,13.89
2023-05-06T01:09:41.905Z,13.90
2023-05-06T01:10:52.348Z,13.90
2023-05-06T01:12:25.705Z,13.95
2023-05-06T01:13:40.505Z,13.90
2023-05-06T01:15:06.515Z,13.96
2023-05-06T01:16:10.202Z,13.81
2023-05-06T01:17:15.868Z,13.86
2023-05-06T01:18:22.593Z,13.85
2023-05-06T01:19:37.305Z,13.94
2023-05-06T01:20:42.020Z,13.83
2023-05-06T01:21:46.096Z,13.74
2023-05-06T01:22:50.190Z,13.77
2023-05-06T01:23:53.238Z,13.77
2023-05-06T01:24:55.509Z,13.78
2023-05-06T01:25:57.759Z,13.75
2023-05-06T01:26:59.908Z,13.70
2023-05-06T01:28:02.153Z,13.57
2023-05-06T01:29:04.848Z,13.57
2023-05-06T01:30:07.818Z,13.57
2023-05-06T01:31:13.787Z,13.63
2023-05-06T01:32:36.544Z,13.64
2023-05-06T01:33:57.428Z,13.64
2023-05-06T01:35:38.293Z,13.75
2023-05-06T01:37:06.896Z,13.76
2023-05-06T01:38:20.806Z,13.74
2023-05-06T01:39:26.837Z,13.72
2023-05-06T01:40:31.090Z,13.78
2023-05-06T01:41:38.903Z,13.78
2023-05-06T01:42:41.698Z,13.74
2023-05-06T01:43:47.299Z,13.76
2023-05-06T01:44:50.502Z,13.72
2023-05-06T01:45:55.895Z,13.67
2023-05-06T01:46:58.234Z,13.67
2023-05-06T01:48:00.824Z,13.65
2023-05-06T01:49:10.419Z,13.68
2023-05-06T01:50:13.445Z,13.72
2023-05-06T01:51:15.705Z,13.69
2023-05-06T01:52:17.876Z,13.68
2023-05-06T01:53:20.047Z,13.67
2023-05-06T01:54:22.324Z,13.60
2023-05-06T01:55:24.480Z,13.57
2023-05-06T01:56:27.085Z,13.60
2023-05-06T01:57:29.259Z,13.56
2023-05-06T01:58:31.514Z,13.49
2023-05-06T01:59:34.661Z,13.49
2023-05-06T02:02:10.581Z,13.34
2023-05-06T02:03:12.962Z,13.35
2023-05-06T02:04:15.469Z,13.42
2023-05-06T02:05:18.246Z,13.42
2023-05-06T02:06:24.773Z,13.42
2023-05-06T02:07:26.934Z,13.42
2023-05-06T02:08:29.278Z,13.39
2023-05-06T02:09:31.425Z,13.45
2023-05-06T02:10:36.775Z,13.47
2023-05-06T02:11:42.916Z,13.38
2023-05-06T02:12:45.139Z,13.39
2023-05-06T02:13:47.463Z,13.33
2023-05-06T02:14:49.695Z,13.40
2023-05-06T02:15:55.232Z,13.44
2023-05-06T02:17:03.583Z,13.46
2023-05-06T02:18:05.927Z,13.42
2023-05-06T02:19:08.257Z,13.44
2023-05-06T02:20:10.774Z,13.41
2023-05-06T02:21:12.998Z,13.44
2023-05-06T02:22:15.143Z,13.49
2023-05-06T02:23:17.351Z,13.51
2023-05-06T02:24:19.544Z,13.56
2023-05-06T02:25:22.386Z,13.53
2023-05-06T02:26:24.569Z,13.53
2023-05-06T02:27:26.948Z,13.53
2023-05-06T02:28:30.784Z,13.53
2023-05-06T02:29:33.085Z,13.54
2023-05-06T02:30:36.387Z,13.48
2023-05-06T02:31:38.634Z,13.47
2023-05-06T02:32:41.380Z,13.54
2023-05-06T02:33:45.273Z,13.47
2023-05-06T02:34:47.425Z,13.48
2023-05-06T02:35:50.275Z,13.47
2023-05-06T02:36:52.852Z,13.45
2023-05-06T02:37:55.775Z,13.42
2023-05-06T02:38:57.952Z,13.40
2023-05-06T02:40:00.231Z,13.44
2023-05-06T02:41:02.469Z,13.43
2023-05-06T02:42:04.763Z,13.49
2023-05-06T02:43:06.943Z,13.52
2023-05-06T02:44:09.731Z,13.46
2023-05-06T02:45:12.235Z,13.38
2023-05-06T02:46:14.615Z,13.33
2023-05-06T02:47:16.824Z,13.24
2023-05-06T02:48:19.977Z,13.24
2023-05-06T02:49:22.190Z,13.33
2023-05-06T02:50:24.354Z,13.30
2023-05-06T02:51:26.575Z,13.36
2023-05-06T02:52:28.801Z,13.31
2023-05-06T02:53:31.030Z,13.29
2023-05-06T02:54:33.353Z,13.26
2023-05-06T02:55:35.888Z,13.21
2023-05-06T02:56:38.080Z,13.15
2023-05-06T02:57:40.250Z,13.16
2023-05-06T02:58:42.448Z,13.25
2023-05-06T02:59:44.714Z,13.23
2023-05-06T03:00:46.954Z,13.27
2023-05-06T03:01:49.185Z,13.26
2023-05-06T03:02:51.650Z,13.27
2023-05-06T03:03:53.995Z,13.25
2023-05-06T03:04:56.360Z,13.17
2023-05-06T03:05:58.656Z,13.14
2023-05-06T03:07:01.042Z,13.12
2023-05-06T03:08:03.341Z,13.06
2023-05-06T03:09:06.538Z,13.01
2023-05-06T03:10:09.363Z,12.87
2023-05-06T03:11:13.372Z,12.81
2023-05-06T03:12:15.594Z,12.81
2023-05-06T03:13:17.885Z,12.77
2023-05-06T03:14:20.211Z,12.66
2023-05-06T03:15:22.382Z,12.67
2023-05-06T03:16:24.695Z,12.62
2023-05-06T03:17:29.615Z,12.58
2023-05-06T03:18:32.041Z,12.60
2023-05-06T03:19:34.920Z,12.68
2023-05-06T03:20:37.372Z,12.77
2023-05-06T03:21:39.574Z,12.81
2023-05-06T03:22:42.367Z,12.85
2023-05-06T03:23:44.797Z,12.89
2023-05-06T03:24:46.994Z,12.95
2023-05-06T03:25:49.149Z,12.97
2023-05-06T03:26:52.622Z,12.95
2023-05-06T03:27:55.152Z,12.96
2023-05-06T03:28:59.015Z,12.97
2023-05-06T03:30:01.797Z,12.93
2023-05-06T03:31:04.096Z,12.88
2023-05-06T03:32:09.106Z,12.92
2023-05-06T03:33:16.947Z,12.80
2023-05-06T03:34:19.180Z,12.77
2023-05-06T03:35:21.465Z,12.67
2023-05-06T03:36:27.973Z,12.58
2023-05-06T03:37:30.811Z,12.52
2023-05-06T03:38:33.141Z,12.40
2023-05-06T03:39:38.746Z,12.41
2023-05-06T03:40:41.003Z,12.43
2023-05-06T03:41:43.272Z,12.30
2023-05-06T03:42:46.256Z,12.31
2023-05-06T03:43:48.784Z,12.34
2023-05-06T03:44:53.746Z,12.33
2023-05-06T03:45:57.340Z,12.38
2023-05-06T03:46:59.830Z,12.42
2023-05-06T03:48:03.716Z,12.42
2023-05-06T03:49:08.547Z,12.40
2023-05-06T03:50:10.784Z,12.36
2023-05-06T03:51:14.209Z,12.42
2023-05-06T03:52:16.576Z,12.46
2023-05-06T03:53:18.918Z,12.48
2023-05-06T03:54:23.350Z,12.50
2023-05-06T03:55:25.552Z,12.39
2023-05-06T03:56:27.876Z,12.43
2023-05-06T03:57:31.682Z,12.43
2023-05-06T03:58:34.120Z,12.41
2023-05-06T03:59:37.466Z,12.42
2023-05-06T04:00:41.442Z,12.44
2023-05-06T04:01:43.685Z,12.49
2023-05-06T04:02:48.060Z,12.46
2023-05-06T04:03:57.419Z,12.46
2023-05-06T04:05:01.244Z,12.47
2023-05-06T04:06:05.241Z,12.47
2023-05-06T04:07:07.481Z,12.49
2023-05-06T04:08:09.631Z,12.48
2023-05-06T04:09:11.820Z,12.51
2023-05-06T04:10:15.508Z,12.53
2023-05-06T04:11:22.604Z,12.55
2023-05-06T04:12:24.862Z,12.61
2023-05-06T04:13:27.923Z,12.65
2023-05-06T04:14:33.189Z,12.65
2023-05-06T04:15:36.167Z,12.73
2023-05-06T04:16:41.581Z,12.77
2023-05-06T04:17:43.805Z,12.88
2023-05-06T04:18:47.697Z,12.88
2023-05-06T04:19:53.700Z,12.99
2023-05-06T04:20:55.924Z,13.02
2023-05-06T04:21:58.522Z,13.16
2023-05-06T04:23:01.733Z,13.61
2023-05-06T04:24:04.421Z,14.13
2023-05-06T04:25:12.126Z,14.48
2023-05-06T04:26:14.786Z,14.71
2023-05-06T04:27:18.123Z,15.21
2023-05-06T04:28:21.812Z,16.03
2023-05-06T04:29:27.048Z,17.04
2023-05-06T04:30:34.031Z,17.64
2023-05-06T04:31:37.153Z,17.58
2023-05-06T04:32:42.487Z,17.40
2023-05-06T04:33:45.566Z,17.29
2023-05-06T04:34:52.100Z,17.52
2023-05-06T04:35:56.034Z,17.91
2023-05-06T04:37:00.042Z,18.58
2023-05-06T04:38:14.917Z,18.54
2023-05-06T04:39:18.072Z,18.95
2023-05-06T04:40:21.012Z,19.70
2023-05-06T04:41:25.825Z,20.48
2023-05-06T04:42:28.133Z,20.98
2023-05-06T04:43:41.450Z,21.97
2023-05-06T04:44:49.986Z,21.85
2023-05-06T04:45:55.182Z,21.81
2023-05-06T04:47:01.723Z,20.92
2023-05-06T04:48:04.325Z,20.77
2023-05-06T04:49:07.621Z,21.26
2023-05-06T04:50:10.305Z,21.69
2023-05-06T04:51:12.572Z,21.78
2023-05-06T04:52:15.796Z,21.80
2023-05-06T04:53:17.998Z,22.76
2023-05-06T04:54:20.163Z,24.05
2023-05-06T04:55:22.516Z,24.77
2023-05-06T04:56:27.852Z,24.95
2023-05-06T04:57:31.093Z,24.72
2023-05-06T04:58:33.392Z,24.11
2023-05-06T04:59:35.563Z,23.49
2023-05-06T05:00:38.397Z,22.62
2023-05-06T05:01:40.597Z,22.18
2023-05-06T05:02:43.646Z,21.86
2023-05-06T05:03:46.707Z,20.98
2023-05-06T05:04:48.991Z,20.24
2023-05-06T05:05:51.281Z,20.04
2023-05-06T05:06:55.079Z,20.15
2023-05-06T05:07:57.313Z,20.73
2023-05-06T05:09:01.535Z,20.99
2023-05-06T05:10:05.153Z,21.43
2023-05-06T05:11:08.421Z,21.79
2023-05-06T05:12:10.754Z,21.54
2023-05-06T05:13:17.430Z,20.93
2023-05-06T05:14:20.394Z,21.23
2023-05-06T05:15:22.902Z,21.33
2023-05-06T05:16:25.460Z,21.66
2023-05-06T05:17:29.158Z,21.71
2023-05-06T05:18:31.987Z,22.25
2023-05-06T05:19:41.024Z,23.12
2023-05-06T05:20:43.935Z,23.22
2023-05-06T05:21:49.243Z,23.26
2023-05-06T05:22:51.443Z,23.13
2023-05-06T05:23:53.587Z,23.63
2023-05-06T05:24:55.901Z,23.48
2023-05-06T05:25:58.504Z,24.10
2023-05-06T05:27:01.838Z,24.94
2023-05-06T05:28:04.408Z,24.84
2023-05-06T05:29:08.224Z,25.14
2023-05-06T05:30:13.270Z,24.96
2023-05-06T05:31:16.936Z,25.27
2023-05-06T05:32:20.073Z,25.56
2023-05-06T05:33:22.508Z,25.97
2023-05-06T05:34:25.394Z,27.10
2023-05-06T05:35:27.854Z,26.54
2023-05-06T05:36:30.198Z,26.42
2023-05-06T05:37:34.396Z,26.93
2023-05-06T05:38:36.846Z,26.71
2023-05-06T05:39:39.604Z,26.11
2023-05-06T05:40:43.197Z,26.20
2023-05-06T05:41:45.511Z,25.97
2023-05-06T05:42:48.800Z,26.93
2023-05-06T05:43:58.166Z,26.01
2023-05-06T05:45:02.070Z,25.10
2023-05-06T05:46:04.640Z,24.29
2023-05-06T05:47:08.219Z,24.95
2023-05-06T05:48:11.175Z,25.41
2023-05-06T05:49:14.170Z,25.49
2023-05-06T05:50:16.878Z,26.02
2023-05-06T05:51:20.194Z,25.18
2023-05-06T05:52:22.407Z,26.99
2023-05-06T05:53:24.560Z,28.48
2023-05-06T05:54:26.711Z,28.24
2023-05-06T05:55:29.486Z,27.57
2023-05-06T05:56:32.307Z,26.83
2023-05-06T05:57:34.531Z,26.81
2023-05-06T05:58:36.660Z,26.25
2023-05-06T05:59:39.183Z,26.08
2023-05-06T06:00:42.344Z,24.55
2023-05-06T06:01:48.214Z,22.96
2023-05-06T06:02:50.397Z,22.03
2023-05-06T06:03:56.175Z,21.56
2023-05-06T06:04:58.881Z,20.57
2023-05-06T06:06:01.245Z,20.64
2023-05-06T06:07:03.920Z,20.33
2023-05-06T06:08:09.926Z,20.70
2023-05-06T06:09:12.345Z,21.12
2023-05-06T06:10:15.362Z,20.77
2023-05-06T06:11:18.976Z,21.66
2023-05-06T06:12:21.225Z,22.07
2023-05-06T06:13:26.484Z,23.14
2023-05-06T06:14:30.373Z,24.02
2023-05-06T06:15:32.743Z,24.74
2023-05-06T06:16:36.693Z,24.89
2023-05-06T06:17:38.990Z,26.53
2023-05-06T06:18:42.182Z,26.24
2023-05-06T06:19:47.596Z,26.19
2023-05-06T06:20:52.400Z,24.54
2023-05-06T06:21:55.372Z,24.20
2023-05-06T06:22:57.988Z,23.44
2023-05-06T06:24:00.439Z,21.80
2023-05-06T06:25:02.651Z,21.38
2023-05-06T06:26:04.994Z,23.81
2023-05-06T06:27:08.628Z,25.29
2023-05-06T06:28:11.021Z,24.31
2023-05-06T06:29:14.159Z,25.68
2023-05-06T06:30:16.374Z,25.10
2023-05-06T06:31:18.771Z,24.06
2023-05-06T06:32:21.192Z,24.45
2023-05-06T06:33:23.421Z,23.14
2023-05-06T06:34:26.235Z,23.92
2023-05-06T06:35:28.519Z,23.28
2023-05-06T06:36:30.657Z,23.07
2023-05-06T06:37:32.814Z,24.04
2023-05-06T06:38:35.820Z,24.00
2023-05-06T06:39:38.130Z,23.80
2023-05-06T06:40:40.327Z,22.56
2023-05-06T06:41:42.822Z,22.12
2023-05-06T06:42:46.425Z,22.55
2023-05-06T06:44:14.723Z,21.94
2023-05-06T06:45:17.218Z,23.10
2023-05-06T06:46:19.417Z,24.29
2023-05-06T06:47:21.627Z,24.64
2023-05-06T06:48:23.769Z,24.82
2023-05-06T06:49:27.353Z,25.41
2023-05-06T06:50:29.528Z,25.52
2023-05-06T06:51:32.176Z,26.90
2023-05-06T06:52:35.642Z,25.59
2023-05-06T06:53:37.889Z,26.98
2023-05-06T06:54:40.090Z,28.18
2023-05-06T06:55:45.704Z,29.26
2023-05-06T06:56:48.438Z,27.47
2023-05-06T06:57:50.760Z,25.49
2023-05-06T06:58:53.513Z,24.24
2023-05-06T06:59:55.951Z,23.70
2023-05-06T07:00:58.307Z,23.14
2023-05-06T07:02:00.897Z,22.68
2023-05-06T07:03:03.419Z,21.67
2023-05-06T07:04:07.133Z,19.96
2023-05-06T07:05:09.997Z,19.82
2023-05-06T07:06:12.379Z,19.66
2023-05-06T07:07:14.751Z,20.19
2023-05-06T07:08:17.093Z,20.64
2023-05-06T07:09:19.374Z,20.35
2023-05-06T07:10:22.315Z,19.90
2023-05-06T07:11:24.496Z,19.24
2023-05-06T07:12:26.830Z,19.81
2023-05-06T07:13:29.010Z,19.50
2023-05-06T07:14:31.187Z,19.88
2023-05-06T07:15:33.331Z,19.03
2023-05-06T07:16:35.625Z,19.43
2023-05-06T07:17:37.871Z,19.45
2023-05-06T07:18:40.082Z,19.04
2023-05-06T07:19:42.208Z,19.37
2023-05-06T07:20:44.375Z,19.54
2023-05-06T07:21:46.567Z,19.55
2023-05-06T07:22:48.732Z,19.64
2023-05-06T07:23:50.971Z,19.67
2023-05-06T07:24:53.127Z,19.51
2023-05-06T07:25:55.242Z,19.75
2023-05-06T07:26:57.770Z,19.71
2023-05-06T07:27:59.986Z,18.99
2023-05-06T07:29:02.277Z,19.15
2023-05-06T07:30:05.086Z,19.35
2023-05-06T07:31:07.295Z,19.13
2023-05-06T07:32:09.507Z,19.29
2023-05-06T07:33:12.153Z,19.53
2023-05-06T07:34:14.341Z,19.11
2023-05-06T07:35:16.648Z,18.85
2023-05-06T07:36:18.761Z,19.14
2023-05-06T07:37:20.904Z,18.58
2023-05-06T07:38:23.218Z,18.08
2023-05-06T07:39:25.391Z,18.30
2023-05-06T07:40:27.621Z,18.75
2023-05-06T07:41:29.738Z,18.58
2023-05-06T07:42:32.841Z,18.75
2023-05-06T07:43:34.977Z,19.08
2023-05-06T07:44:37.162Z,19.51
2023-05-06T07:45:39.349Z,19.87
2023-05-06T07:46:41.675Z,20.37
2023-05-06T07:47:43.959Z,20.44
2023-05-06T07:48:46.154Z,20.79
2023-05-06T07:49:48.332Z,20.82
2023-05-06T07:50:50.492Z,20.94
2023-05-06T07:51:52.678Z,20.81
2023-05-06T07:52:54.914Z,20.99
2023-05-06T07:53:57.125Z,20.59
2023-05-06T07:54:59.398Z,20.31
2023-05-06T07:56:02.556Z,20.01
2023-05-06T07:57:04.818Z,20.25
2023-05-06T07:58:07.073Z,20.57
2023-05-06T07:59:09.235Z,20.81
2023-05-06T08:00:12.702Z,21.15
2023-05-06T08:01:16.038Z,21.21
2023-05-06T08:02:18.411Z,20.63
2023-05-06T08:03:20.754Z,20.51
2023-05-06T08:04:23.332Z,20.62
2023-05-06T08:05:25.622Z,20.28
2023-05-06T08:06:27.807Z,20.11
2023-05-06T08:07:30.095Z,19.90
2023-05-06T08:08:32.369Z,20.03
2023-05-06T08:09:34.500Z,19.75
2023-05-06T08:10:36.634Z,19.77
2023-05-06T08:11:38.905Z,19.59
2023-05-06T08:12:41.399Z,19.52
2023-05-06T08:13:43.604Z,19.73
2023-05-06T08:14:45.876Z,19.97
2023-05-06T08:15:48.035Z,19.92
2023-05-06T08:16:50.442Z,19.71
2023-05-06T08:17:52.787Z,19.73
2023-05-06T08:18:55.014Z,19.82
2023-05-06T08:19:57.214Z,19.61
2023-05-06T08:20:59.382Z,19.49
2023-05-06T08:22:01.589Z,19.18
2023-05-06T08:23:03.786Z,19.31
2023-05-06T08:24:06.061Z,19.33
2023-05-06T08:25:08.894Z,19.18
2023-05-06T08:26:11.202Z,18.95
2023-05-06T08:27:13.425Z,19.56
2023-05-06T08:28:15.648Z,19.57
2023-05-06T08:29:18.445Z,19.42
2023-05-06T08:30:20.865Z,19.40
2023-05-06T08:31:23.160Z,19.11
2023-05-06T08:32:25.666Z,19.26
2023-05-06T08:33:30.647Z,19.43
2023-05-06T08:34:34.797Z,19.57
2023-05-06T08:35:37.066Z,19.64
2023-05-06T08:36:39.306Z,19.81
2023-05-06T08:37:41.525Z,20.07
2023-05-06T08:38:48.985Z,20.38
2023-05-06T08:39:51.275Z,20.50
2023-05-06T08:40:54.766Z,20.31
2023-05-06T08:41:59.128Z,20.02
2023-05-06T08:43:02.772Z,19.46
2023-05-06T08:44:05.530Z,19.50
2023-05-06T08:45:08.876Z,19.58
2023-05-06T08:46:11.467Z,19.34
2023-05-06T08:47:13.683Z,19.75
2023-05-06T08:48:16.654Z,19.90
2023-05-06T08:49:18.977Z,20.18
2023-05-06T08:50:21.281Z,20.01
2023-05-06T08:51:28.548Z,20.94
2023-05-06T08:52:31.488Z,21.46
2023-05-06T08:53:33.952Z,21.60
2023-05-06T08:54:36.482Z,22.06
2023-05-06T08:55:41.689Z,22.17
2023-05-06T08:56:48.095Z,22.40
2023-05-06T08:57:52.897Z,22.70
2023-05-06T08:58:56.203Z,22.76
2023-05-06T08:59:58.736Z,23.09
2023-05-06T09:01:02.634Z,22.85
2023-05-06T09:02:05.226Z,22.43
2023-05-06T09:03:07.540Z,22.40
2023-05-06T09:04:10.148Z,22.56
2023-05-06T09:05:12.634Z,22.81
2023-05-06T09:06:14.965Z,23.04
2023-05-06T09:07:17.399Z,22.53
2023-05-06T09:08:19.727Z,22.43
2023-05-06T09:09:21.930Z,21.26
2023-05-06T09:10:24.299Z,20.40
2023-05-06T09:11:29.282Z,21.10
2023-05-06T09:12:31.590Z,21.31
2023-05-06T09:13:33.746Z,21.01
2023-05-06T09:14:35.960Z,21.00
2023-05-06T09:15:47.181Z,21.32
2023-05-06T09:16:51.371Z,21.20
2023-05-06T09:17:55.397Z,21.73
2023-05-06T09:18:59.082Z,21.73
2023-05-06T09:20:01.410Z,22.25
2023-05-06T09:21:04.356Z,21.92
2023-05-06T09:22:06.730Z,22.20
2023-05-06T09:23:13.136Z,22.46
2023-05-06T09:24:16.735Z,22.50
2023-05-06T09:25:18.945Z,22.34
2023-05-06T09:26:22.760Z,22.88
2023-05-06T09:27:31.294Z,23.15
2023-05-06T09:28:33.522Z,23.17
2023-05-06T09:29:36.004Z,22.73
2023-05-06T09:30:42.457Z,21.93
2023-05-06T09:31:45.998Z,21.59
2023-05-06T09:32:49.777Z,21.59
2023-05-06T09:33:53.481Z,21.61
2023-05-06T09:34:56.254Z,21.64
2023-05-06T09:35:58.399Z,22.10
2023-05-06T09:37:00.889Z,22.23
2023-05-06T09:38:04.771Z,22.42
2023-05-06T09:39:08.666Z,22.30
2023-05-06T09:40:11.066Z,22.44
2023-05-06T09:41:14.348Z,21.61
2023-05-06T09:42:16.582Z,20.80
2023-05-06T09:43:19.009Z,20.91
2023-05-06T09:44:22.837Z,21.32
2023-05-06T09:45:24.942Z,21.75
2023-05-06T09:46:28.077Z,22.22
2023-05-06T09:47:34.934Z,22.57
2023-05-06T09:48:40.672Z,22.22
2023-05-06T09:49:42.947Z,22.32
2023-05-06T09:50:45.190Z,22.52
2023-05-06T09:51:51.446Z,22.71
2023-05-06T09:52:55.089Z,22.41
2023-05-06T09:53:59.108Z,21.37
2023-05-06T09:55:03.219Z,21.57
2023-05-06T09:56:06.637Z,21.31
2023-05-06T09:57:10.431Z,21.03
2023-05-06T09:58:13.168Z,20.71
2023-05-06T09:59:18.325Z,20.66
2023-05-06T10:00:26.794Z,20.93
2023-05-06T10:01:36.720Z,21.20
2023-05-06T10:02:41.092Z,21.62
2023-05-06T10:03:45.011Z,21.81
2023-05-06T10:04:49.652Z,21.95
2023-05-06T10:05:54.258Z,21.92
2023-05-06T10:06:58.039Z,21.94
2023-05-06T10:08:01.310Z,22.06
2023-05-06T10:09:04.333Z,22.09
2023-05-06T10:10:14.240Z,22.17
2023-05-06T10:11:16.953Z,21.51
2023-05-06T10:12:20.230Z,20.96
2023-05-06T10:13:24.658Z,21.15
2023-05-06T10:14:26.998Z,21.50
2023-05-06T10:15:30.223Z,21.44
2023-05-06T10:16:34.785Z,20.75
2023-05-06T10:17:39.635Z,21.23
2023-05-06T10:18:44.297Z,21.61
2023-05-06T10:19:50.233Z,21.59
2023-05-06T10:20:53.606Z,21.38
2023-05-06T10:22:05.915Z,21.51
2023-05-06T10:23:40.877Z,21.32
2023-05-06T10:24:58.263Z,22.45
2023-05-06T10:26:07.424Z,22.91
2023-05-06T10:27:12.194Z,22.92
2023-05-06T10:28:19.098Z,22.99
2023-05-06T10:29:29.344Z,22.72
2023-05-06T10:30:34.098Z,22.41
2023-05-06T10:31:44.209Z,22.64
2023-05-06T10:32:46.626Z,22.89
2023-05-06T10:33:52.472Z,23.50
2023-05-06T10:34:57.461Z,23.90
2023-05-06T10:36:18.236Z,23.71
2023-05-06T10:37:28.443Z,23.77
2023-05-06T10:38:37.618Z,23.93
2023-05-06T10:39:42.240Z,24.30
2023-05-06T10:40:44.790Z,24.46
2023-05-06T10:41:47.802Z,24.59
2023-05-06T10:42:51.298Z,23.96
2023-05-06T10:43:57.842Z,23.74
2023-05-06T10:45:04.644Z,23.53
2023-05-06T10:46:12.654Z,23.40
2023-05-06T10:47:14.886Z,23.31
2023-05-06T10:48:17.071Z,23.50
2023-05-06T10:49:20.771Z,23.43
2023-05-06T10:50:27.799Z,23.40
2023-05-06T10:51:31.455Z,23.43
2023-05-06T10:52:47.454Z,22.60
2023-05-06T10:53:58.683Z,22.44
2023-05-06T10:55:01.006Z,22.63
2023-05-06T10:56:09.302Z,22.29
2023-05-06T10:57:11.874Z,22.34
2023-05-06T10:58:16.143Z,22.54
2023-05-06T10:59:24.252Z,22.94
2023-05-06T11:00:26.957Z,22.80
2023-05-06T11:01:29.260Z,23.30
2023-05-06T11:02:32.399Z,23.68
2023-05-06T11:03:34.798Z,23.58
2023-05-06T11:04:37.900Z,23.25
2023-05-06T11:05:51.828Z,23.04
2023-05-06T11:06:54.077Z,22.55
2023-05-06T11:08:10.390Z,21.50
2023-05-06T11:09:20.533Z,21.62
2023-05-06T11:10:33.307Z,21.83
2023-05-06T11:12:00.908Z,22.18
2023-05-06T11:13:24.343Z,22.33
2023-05-06T11:14:37.674Z,22.58
2023-05-06T11:15:40.867Z,22.71
2023-05-06T11:16:49.065Z,22.30
2023-05-06T11:17:53.188Z,22.64
2023-05-06T11:18:55.642Z,23.47
2023-05-06T11:20:20.509Z,23.94
2023-05-06T11:21:40.750Z,24.37
2023-05-06T11:22:42.885Z,24.85
2023-05-06T11:23:53.910Z,24.85
2023-05-06T11:24:57.227Z,24.49
2023-05-06T11:25:59.664Z,23.95
2023-05-06T11:27:01.878Z,22.70
2023-05-06T11:28:10.946Z,21.83
2023-05-06T11:29:16.396Z,22.02
2023-05-06T11:30:18.586Z,21.99
2023-05-06T11:31:22.085Z,22.16
2023-05-06T11:32:28.188Z,22.07
2023-05-06T11:33:35.500Z,21.69
2023-05-06T11:34:38.370Z,22.59
2023-05-06T11:35:40.573Z,23.04
2023-05-06T11:36:48.096Z,23.24
2023-05-06T11:37:52.016Z,23.35
2023-05-06T11:38:56.189Z,23.24
2023-05-06T11:39:58.359Z,22.56
2023-05-06T11:41:00.921Z,22.22
2023-05-06T11:42:06.832Z,22.44
2023-05-06T11:43:16.083Z,23.02
2023-05-06T11:44:32.029Z,23.36
2023-05-06T11:45:45.174Z,23.33
2023-05-06T11:46:47.392Z,22.50
2023-05-06T11:47:53.872Z,22.63
2023-05-06T11:48:56.233Z,22.18
2023-05-06T11:49:59.035Z,22.21
2023-05-06T11:51:01.197Z,21.80
2023-05-06T11:52:04.009Z,21.74
2023-05-06T11:53:06.614Z,21.83
2023-05-06T11:54:10.121Z,22.09
2023-05-06T11:55:12.595Z,22.25
2023-05-06T11:56:14.870Z,22.76
2023-05-06T11:57:17.364Z,23.16
2023-05-06T11:58:26.231Z,22.96
2023-05-06T11:59:39.684Z,23.16
2023-05-06T12:00:59.328Z,23.38
2023-05-06T12:02:03.904Z,23.60
2023-05-06T12:03:14.332Z,24.30
2023-05-06T12:04:16.608Z,23.20
2023-05-06T12:05:23.080Z,24.19
2023-05-06T12:06:34.967Z,24.74
2023-05-06T12:07:37.193Z,25.09
2023-05-06T12:08:39.809Z,25.20
2023-05-06T12:09:44.627Z,25.26
2023-05-06T12:10:47.468Z,25.35
2023-05-06T12:11:50.797Z,23.44
2023-05-06T12:12:53.088Z,23.25
2023-05-06T12:13:55.916Z,23.49
2023-05-06T12:14:58.339Z,23.33
2023-05-06T12:16:01.489Z,23.27
2023-05-06T12:17:04.560Z,24.19
2023-05-06T12:18:06.937Z,24.52
2023-05-06T12:19:09.159Z,24.18
2023-05-06T12:20:12.550Z,24.38
2023-05-06T12:21:14.867Z,24.32
2023-05-06T12:22:24.709Z,24.31
2023-05-06T12:23:26.949Z,23.86
2023-05-06T12:24:29.890Z,24.47
2023-05-06T12:25:32.477Z,24.82
2023-05-06T12:26:45.588Z,23.95
2023-05-06T12:27:47.724Z,23.10
2023-05-06T12:29:10.696Z,22.60
2023-05-06T12:30:13.439Z,23.41
2023-05-06T12:31:23.375Z,23.34
2023-05-06T12:32:25.728Z,23.32
2023-05-06T12:33:27.940Z,23.82
2023-05-06T12:34:40.815Z,23.57
2023-05-06T12:35:43.058Z,23.36
2023-05-06T12:36:46.677Z,23.31
2023-05-06T12:37:48.823Z,24.04
2023-05-06T12:38:52.945Z,24.14
2023-05-06T12:39:58.782Z,24.10
2023-05-06T12:41:01.670Z,24.50
2023-05-06T12:42:04.520Z,24.16
2023-05-06T12:43:07.153Z,23.81
2023-05-06T12:44:34.010Z,23.16
2023-05-06T12:45:39.266Z,22.92
2023-05-06T12:46:51.444Z,23.11
2023-05-06T12:48:03.890Z,23.14
2023-05-06T12:49:06.168Z,24.10
2023-05-06T12:50:08.855Z,24.86
2023-05-06T12:51:19.160Z,25.06
2023-05-06T12:52:23.231Z,24.14
2023-05-06T12:53:33.377Z,24.23
2023-05-06T12:54:36.427Z,24.01
2023-05-06T12:55:41.653Z,23.56
2023-05-06T12:56:44.899Z,23.27
2023-05-06T12:57:48.209Z,23.14
2023-05-06T12:59:01.076Z,24.19
2023-05-06T13:00:03.690Z,24.91
2023-05-06T13:01:07.592Z,24.28
2023-05-06T13:02:10.072Z,23.31
2023-05-06T13:03:13.454Z,23.46
2023-05-06T13:04:15.681Z,24.40
2023-05-06T13:05:17.966Z,23.53
2023-05-06T13:06:20.171Z,23.46
2023-05-06T13:07:22.464Z,23.72
2023-05-06T13:08:24.886Z,23.89
2023-05-06T13:09:27.145Z,23.93
2023-05-06T13:10:29.280Z,23.67
2023-05-06T13:11:31.657Z,23.86
2023-05-06T13:12:34.080Z,24.10
2023-05-06T13:13:36.235Z,23.75
2023-05-06T13:14:40.326Z,23.54
2023-05-06T13:15:43.034Z,22.58
2023-05-06T13:16:45.552Z,22.67
2023-05-06T13:17:48.665Z,22.56
2023-05-06T13:18:50.940Z,22.73
2023-05-06T13:19:53.448Z,22.50
2023-05-06T13:20:55.719Z,22.38
2023-05-06T13:21:58.624Z,22.15
2023-05-06T13:23:00.783Z,22.55
2023-05-06T13:24:03.570Z,22.57
2023-05-06T13:25:05.856Z,22.97
2023-05-06T13:26:07.999Z,22.81
2023-05-06T13:27:10.227Z,22.67
2023-05-06T13:28:12.392Z,23.02
2023-05-06T13:29:14.603Z,22.84
2023-05-06T13:30:17.126Z,23.16
2023-05-06T13:31:19.503Z,22.78
2023-05-06T13:32:21.846Z,22.47
2023-05-06T13:33:24.133Z,22.83
2023-05-06T13:34:26.826Z,23.37
2023-05-06T13:35:30.340Z,23.63
2023-05-06T13:36:32.624Z,23.89
2023-05-06T13:37:34.836Z,22.47
2023-05-06T13:38:37.067Z,21.98
2023-05-06T13:39:39.288Z,22.39
2023-05-06T13:40:41.658Z,22.41
2023-05-06T13:41:47.445Z,22.92
2023-05-06T13:42:49.794Z,22.49
2023-05-06T13:43:52.331Z,23.02
2023-05-06T13:44:54.572Z,23.82
2023-05-06T13:45:56.835Z,23.36
2023-05-06T13:46:59.113Z,23.18
2023-05-06T13:48:01.394Z,23.27